Time;durP1;ratioP1;P1;durP2;ratioP2;P2;SDS_P1;SDS_P2;PMS_P1;PMS_P2;Temp;Humidity;BMP_temperature;BMP_pressure;BME280_temperature;BME280_humidity;BME280_pressure;Samples;Min_cycle;Max_cycle;Signal;HPM_P1;HPM_P2
2024/03/02 00:02:16;;;;;;;0.10;0.10;;;;;;;5.69;79.56;98670.66;7364404;19;20011;-66
2024/03/02 00:04:45;;;;;;;0.10;0.10;;;;;;;5.72;79.43;98678.31;7363665;19;20015;-67
2024/03/02 00:07:14;;;;;;;0.10;0.10;;;;;;;5.63;79.90;98670.88;7359875;19;20014;-66
2024/03/02 00:09:40;;;;;;;0.10;0.10;;;;;;;5.63;79.74;98671.72;7360714;19;20010;-66
2024/03/02 00:12:05;;;;;;;0.10;0.10;;;;;;;5.62;79.96;98669.16;7363478;19;20034;-66
2024/03/02 00:14:31;;;;;;;0.10;0.10;;;;;;;5.43;79.55;98651.72;7361114;19;20022;-66
2024/03/02 00:16:57;;;;;;;0.10;0.10;;;;;;;5.56;79.38;98677.16;7364030;19;20022;-66
2024/03/02 00:19:22;;;;;;;0.00;0.00;;;;;;;5.51;79.70;98677.31;7362705;19;20015;-66
2024/03/02 00:21:48;;;;;;;0.00;0.00;;;;;;;5.49;79.33;98680.88;7362259;19;20597;-66
2024/03/02 00:24:33;;;;;;;0.00;0.00;;;;;;;5.28;79.41;98660.00;7363404;19;20014;-66
2024/03/02 00:26:59;;;;;;;0.10;0.10;;;;;;;5.40;79.55;98685.44;7363706;19;20956;-65
2024/03/02 00:29:25;;;;;;;0.00;0.00;;;;;;;5.36;79.28;98683.84;7363833;19;20011;-66
2024/03/02 00:31:50;;;;;;;0.10;0.10;;;;;;;5.33;79.42;98689.16;7350635;19;20485;-65
2024/03/02 00:34:17;;;;;;;0.10;0.10;;;;;;;5.31;79.46;98685.75;7363512;19;20021;-65
2024/03/02 00:36:43;;;;;;;0.00;0.00;;;;;;;5.27;79.08;98688.50;7359421;19;20018;-66
2024/03/02 00:39:14;;;;;;;0.00;0.00;;;;;;;5.21;79.41;98689.53;7364802;19;20957;-66
2024/03/02 00:41:44;;;;;;;0.10;0.10;;;;;;;5.07;79.58;98677.09;7365332;19;20757;-66
2024/03/02 00:44:12;;;;;;;0.00;0.00;;;;;;;5.15;79.34;98695.78;7360447;19;20914;-66
2024/03/02 00:46:43;;;;;;;0.10;0.10;;;;;;;5.13;79.66;98696.75;7362439;19;20718;-66
2024/03/02 00:49:16;;;;;;;0.10;0.10;;;;;;;5.09;79.51;98695.97;7354669;19;20011;-66
2024/03/02 00:51:52;;;;;;;0.10;0.10;;;;;;;5.06;79.27;98705.56;7360846;19;20017;-66
2024/03/02 00:54:28;;;;;;;0.10;0.10;;;;;;;5.00;79.25;98705.78;7361820;19;20006;-66
2024/03/02 00:56:55;;;;;;;0.00;0.00;;;;;;;4.82;79.55;98687.38;7356175;19;20655;-65
2024/03/02 00:59:21;;;;;;;0.10;0.10;;;;;;;4.94;79.53;98701.66;7361583;19;20110;-65
2024/03/02 01:01:48;;;;;;;0.10;0.10;;;;;;;4.90;79.21;98703.47;7362588;19;21887;-66
2024/03/02 01:04:14;;;;;;;0.00;0.00;;;;;;;4.91;79.44;98701.72;7361791;19;20010;-65
2024/03/02 01:06:39;;;;;;;0.00;0.00;;;;;;;4.88;79.50;98701.84;7361205;19;20364;-66
2024/03/02 01:09:05;;;;;;;0.10;0.10;;;;;;;4.76;79.62;98690.13;7358999;19;20374;-66
2024/03/02 01:11:30;;;;;;;0.10;0.10;;;;;;;4.84;79.45;98701.09;7359474;19;20007;-66
2024/03/02 01:13:55;;;;;;;0.10;0.10;;;;;;;4.84;79.41;98701.09;7351189;19;22939;-67
2024/03/02 01:16:21;;;;;;;0.00;0.00;;;;;;;4.82;79.74;98697.72;7360674;19;20518;-66
2024/03/02 01:18:46;;;;;;;0.10;0.10;;;;;;;4.81;79.78;98703.75;7357745;19;20010;-65
2024/03/02 01:21:12;;;;;;;0.10;0.10;;;;;;;4.74;79.51;98701.44;7360964;19;20029;-65
2024/03/02 01:23:38;;;;;;;0.10;0.10;;;;;;;4.80;79.88;98704.66;7359662;19;20015;-65
2024/03/02 01:26:04;;;;;;;0.10;0.10;;;;;;;4.80;79.68;98703.81;7360958;19;20050;-66
2024/03/02 01:28:29;;;;;;;0.00;0.00;;;;;;;4.79;79.67;98702.97;7350286;19;20011;-65
2024/03/02 01:30:54;;;;;;;0.10;0.10;;;;;;;4.79;79.92;98705.56;7360541;19;20925;-66
2024/03/02 01:33:21;;;;;;;0.10;0.10;;;;;;;4.79;79.85;98713.31;7347695;19;20112;-66
2024/03/02 01:35:47;;;;;;;0.00;0.00;;;;;;;4.78;79.89;98714.22;7362808;19;20014;-66
2024/03/02 01:38:13;;;;;;;0.00;0.00;;;;;;;4.77;79.48;98712.53;7353253;19;20498;-65
2024/03/02 01:40:38;;;;;;;0.10;0.10;;;;;;;4.76;79.72;98718.56;7361015;19;20101;-65
2024/03/02 01:43:05;;;;;;;0.10;0.10;;;;;;;4.73;79.38;98716.09;7360507;19;20474;-65
2024/03/02 01:45:31;;;;;;;0.10;0.10;;;;;;;4.75;79.44;98710.88;7361401;19;20010;-65
2024/03/02 01:47:56;;;;;;;0.10;0.10;;;;;;;4.73;79.89;98713.50;7357010;19;20011;-65
2024/03/02 01:50:29;;;;;;;0.00;0.00;;;;;;;4.72;79.50;98700.66;7359665;19;20065;-67
2024/03/02 01:52:58;;;;;;;0.10;0.10;;;;;;;4.69;79.47;98707.59;7348813;19;19999;-65
2024/03/02 01:55:24;;;;;;;0.10;0.10;;;;;;;4.65;79.40;98710.31;7364732;19;20478;-65
2024/03/02 01:57:52;;;;;;;0.10;0.10;;;;;;;4.63;79.58;98712.94;7365160;19;20110;-65
2024/03/02 02:00:21;;;;;;;0.10;0.10;;;;;;;4.62;79.56;98721.59;7364356;19;20037;-65
2024/03/02 02:02:48;;;;;;;0.10;0.10;;;;;;;4.59;79.18;98720.84;7363629;19;20063;-65
2024/03/02 02:05:14;;;;;;;0.00;0.00;;;;;;;4.55;79.62;98714.91;7367996;19;20014;-65
2024/03/02 02:07:41;;;;;;;0.10;0.10;;;;;;;4.54;79.46;98722.72;7370210;19;20014;-65
2024/03/02 02:10:07;;;;;;;0.00;0.00;;;;;;;4.51;79.09;98717.63;7366106;19;20014;-65
2024/03/02 02:12:33;;;;;;;0.00;0.00;;;;;;;4.50;79.07;98710.78;7365707;19;20012;-65
2024/03/02 02:14:58;;;;;;;0.00;0.00;;;;;;;4.41;79.52;98707.59;7369273;19;20146;-65
2024/03/02 02:17:24;;;;;;;0.00;0.00;;;;;;;4.45;79.19;98718.66;7367154;19;20007;-66
2024/03/02 02:19:49;;;;;;;0.10;0.10;;;;;;;4.43;79.34;98713.53;7372050;19;20944;-64
2024/03/02 02:22:14;;;;;;;0.10;0.10;;;;;;;4.42;79.23;98711.00;7369632;19;20011;-65
2024/03/02 02:24:41;;;;;;;0.10;0.10;;;;;;;4.36;79.34;98699.13;7370580;19;20010;-65
2024/03/02 02:27:07;;;;;;;0.10;0.10;;;;;;;4.39;79.09;98704.19;7369779;19;20011;-66
2024/03/02 02:29:33;;;;;;;0.10;0.10;;;;;;;4.38;79.10;98706.81;7370355;19;20018;-65
2024/03/02 02:31:58;;;;;;;0.00;0.00;;;;;;;4.36;79.50;98699.13;7362998;19;20021;-65
2024/03/02 02:34:24;;;;;;;0.00;0.00;;;;;;;4.20;79.53;98679.78;7365849;19;20014;-65
2024/03/02 02:36:49;;;;;;;0.10;0.10;;;;;;;4.35;79.26;98706.91;7366256;19;20026;-65
2024/03/02 02:39:16;;;;;;;0.10;0.10;;;;;;;4.34;79.16;98707.81;7369838;19;20506;-65
2024/03/02 02:41:42;;;;;;;0.10;0.10;;;;;;;4.32;79.50;98702.69;7371456;19;20623;-64
2024/03/02 02:44:07;;;;;;;0.10;0.10;;;;;;;4.31;79.46;98703.59;7363545;19;20038;-65
2024/03/02 02:46:33;;;;;;;0.10;0.10;;;;;;;4.30;79.35;98712.19;7371874;19;20014;-65
2024/03/02 02:48:58;;;;;;;0.10;0.10;;;;;;;4.27;79.56;98714.06;7368777;19;20344;-65
2024/03/02 02:51:25;;;;;;;0.00;0.00;;;;;;;4.25;79.38;98716.66;7364077;19;20013;-65
2024/03/02 02:53:51;;;;;;;0.00;0.00;;;;;;;4.06;79.37;98692.28;7366943;19;20516;-65
2024/03/02 02:56:17;;;;;;;0.10;0.10;;;;;;;4.23;79.81;98715.03;7366566;19;21032;-65
2024/03/02 02:58:42;;;;;;;0.00;0.00;;;;;;;4.07;79.69;98693.97;7364757;19;20019;-65
2024/03/02 03:01:08;;;;;;;0.03;0.03;;;;;;;4.20;79.66;98715.94;7363308;19;20015;-65
2024/03/02 03:03:34;;;;;;;0.10;0.10;;;;;;;4.16;79.71;98720.38;7369527;19;20080;-64
2024/03/02 03:05:59;;;;;;;0.10;0.10;;;;;;;4.17;79.74;98716.06;7367865;19;20021;-65
2024/03/02 03:08:24;;;;;;;0.00;0.00;;;;;;;4.08;79.75;98708.56;7367678;19;20003;-65
2024/03/02 03:10:50;;;;;;;0.05;0.05;;;;;;;4.16;79.56;98716.94;7365252;19;20006;-65
2024/03/02 03:13:15;;;;;;;0.10;0.10;;;;;;;4.15;79.77;98715.22;7365860;19;20469;-65
2024/03/02 03:15:41;;;;;;;0.00;0.00;;;;;;;4.14;79.38;98713.53;7364516;19;20910;-65
2024/03/02 03:18:10;;;;;;;0.00;0.00;;;;;;;4.14;79.37;98718.72;7367958;19;20021;-65
2024/03/02 03:20:36;;;;;;;0.00;0.00;;;;;;;4.12;79.43;98713.59;7366549;19;20022;-64
2024/03/02 03:23:01;;;;;;;0.10;0.10;;;;;;;4.12;79.63;98715.34;7368570;19;20023;-64
2024/03/02 03:25:27;;;;;;;0.10;0.10;;;;;;;4.11;79.53;98713.66;7364479;19;20006;-65
2024/03/02 03:27:52;;;;;;;0.00;0.00;;;;;;;4.10;79.67;98717.09;7369622;19;20034;-65
2024/03/02 03:30:18;;;;;;;0.00;0.00;;;;;;;4.08;79.23;98713.72;7359500;19;20630;-65
2024/03/02 03:32:43;;;;;;;0.10;0.10;;;;;;;4.09;79.45;98715.41;7366966;19;20019;-64
2024/03/02 03:35:09;;;;;;;0.00;0.00;;;;;;;4.07;79.74;98714.63;7362744;19;20010;-65
2024/03/02 03:37:35;;;;;;;0.00;0.00;;;;;;;3.95;79.53;98704.63;7367211;19;20074;-64
2024/03/02 03:40:02;;;;;;;0.00;0.00;;;;;;;4.09;79.51;98720.56;7366879;19;20019;-65
2024/03/02 03:42:28;;;;;;;0.00;0.00;;;;;;;4.07;79.40;98720.63;7360846;19;20018;-64
2024/03/02 03:44:53;;;;;;;0.00;0.00;;;;;;;4.06;79.64;98723.25;7364860;19;20470;-67
2024/03/02 03:47:19;;;;;;;0.10;0.10;;;;;;;4.06;79.46;98720.69;7367854;19;20078;-65
2024/03/02 03:49:45;;;;;;;0.00;0.00;;;;;;;4.06;79.56;98723.25;7366427;19;20006;-65
2024/03/02 03:52:10;;;;;;;0.00;0.00;;;;;;;4.05;79.22;98717.22;7367270;19;20059;-65
2024/03/02 03:54:38;;;;;;;0.00;0.00;;;;;;;4.03;79.85;98716.44;7357828;19;20868;-65
2024/03/02 03:57:03;;;;;;;0.10;0.10;;;;;;;4.02;79.49;98713.91;7365449;19;20015;-64
2024/03/02 03:59:29;;;;;;;0.00;0.00;;;;;;;4.01;79.33;98710.47;7360682;19;20023;-64
2024/03/02 04:01:54;;;;;;;0.10;0.10;;;;;;;4.01;79.78;98712.22;7367185;19;20011;-64
2024/03/02 04:04:20;;;;;;;0.10;0.10;;;;;;;3.98;79.55;98718.28;7359655;19;20002;-65
2024/03/02 04:06:45;;;;;;;0.10;0.10;;;;;;;3.97;79.86;98721.78;7368982;19;20049;-65
2024/03/02 04:09:10;;;;;;;0.00;0.00;;;;;;;3.90;80.07;98712.47;7368009;19;20007;-64
2024/03/02 04:11:36;;;;;;;0.00;0.00;;;;;;;3.96;79.66;98716.66;7365024;19;20006;-65
2024/03/02 04:14:01;;;;;;;0.00;0.00;;;;;;;3.95;79.69;98717.53;7366473;19;20347;-64
2024/03/02 04:16:28;;;;;;;0.10;0.10;;;;;;;3.93;79.87;98720.16;7348478;19;20049;-66
2024/03/02 04:18:54;;;;;;;0.10;0.10;;;;;;;3.90;79.63;98718.53;7351491;19;20027;-65
2024/03/02 04:21:20;;;;;;;0.10;0.10;;;;;;;3.90;79.80;98720.22;7367437;19;20386;-65
2024/03/02 04:23:45;;;;;;;0.10;0.10;;;;;;;3.87;79.61;98710.84;7367301;19;20341;-64
2024/03/02 04:26:10;;;;;;;0.00;0.00;;;;;;;3.87;79.98;98717.75;7355676;19;20333;-65
2024/03/02 04:28:36;;;;;;;0.10;0.10;;;;;;;3.86;79.92;98713.47;7366464;19;20007;-65
2024/03/02 04:31:01;;;;;;;0.10;0.10;;;;;;;3.85;79.63;98722.97;7366045;19;20015;-64
2024/03/02 04:33:27;;;;;;;0.00;0.00;;;;;;;3.84;79.64;98721.25;7364115;19;20653;-64
2024/03/02 04:35:52;;;;;;;0.08;0.08;;;;;;;3.83;79.83;98724.72;7363420;19;20042;-64
2024/03/02 04:38:18;;;;;;;0.10;0.10;;;;;;;3.80;79.88;98719.66;7363663;19;20462;-65
2024/03/02 04:40:43;;;;;;;0.10;0.10;;;;;;;3.83;80.04;98729.88;7367160;19;20022;-65
2024/03/02 04:43:09;;;;;;;0.00;0.00;;;;;;;3.82;80.01;98727.34;7354092;19;20014;-64
2024/03/02 04:45:34;;;;;;;0.00;0.00;;;;;;;3.82;79.90;98732.53;7360649;19;20015;-64
2024/03/02 04:48:00;;;;;;;0.10;0.10;;;;;;;3.66;79.94;98706.28;7361805;19;20011;-64
2024/03/02 04:50:25;;;;;;;0.10;0.10;;;;;;;3.80;80.10;98724.81;7364309;19;20043;-65
2024/03/02 04:52:51;;;;;;;0.00;0.00;;;;;;;3.80;79.74;98722.25;7365151;19;20017;-64
2024/03/02 04:57:42;;;;;;;0.00;0.00;;;;;;;3.80;80.10;98724.81;7363691;19;20002;-64
2024/03/02 05:00:08;;;;;;;0.00;0.00;;;;;;;3.79;79.93;98725.69;7365592;19;20018;-65
2024/03/02 05:02:34;;;;;;;0.10;0.10;;;;;;;3.79;79.82;98733.44;7361780;19;20834;-65
2024/03/02 05:05:00;;;;;;;0.00;0.00;;;;;;;3.79;79.67;98735.19;7364800;19;20738;-64
2024/03/02 05:07:25;;;;;;;0.00;0.00;;;;;;;3.77;79.78;98732.63;7361791;19;20046;-65
2024/03/02 05:09:50;;;;;;;0.08;0.08;;;;;;;3.77;79.77;98735.22;7366280;19;20105;-64
2024/03/02 05:14:41;;;;;;;0.10;0.10;;;;;;;3.77;80.09;98740.38;7366725;19;20011;-64
2024/03/02 05:17:07;;;;;;;0.05;0.05;;;;;;;3.77;80.02;98736.97;7356349;19;20014;-65
2024/03/02 05:19:32;;;;;;;0.00;0.00;;;;;;;3.75;79.80;98730.97;7358153;19;20423;-64
2024/03/02 05:21:57;;;;;;;0.00;0.00;;;;;;;3.77;79.91;98735.22;7363280;19;20013;-65
2024/03/02 05:24:23;;;;;;;0.00;0.00;;;;;;;3.75;79.97;98736.13;7365497;19;20732;-65
2024/03/02 05:26:49;;;;;;;0.00;0.00;;;;;;;3.76;80.07;98733.53;7368109;19;20505;-64
2024/03/02 05:29:14;;;;;;;0.10;0.10;;;;;;;3.77;79.65;98739.53;7360910;19;20347;-65
2024/03/02 05:31:40;;;;;;;0.00;0.00;;;;;;;3.62;79.93;98718.41;7360619;19;20011;-65
2024/03/02 05:34:05;;;;;;;0.00;0.00;;;;;;;3.72;80.04;98726.75;7354774;19;20022;-65
2024/03/02 05:36:31;;;;;;;0.10;0.10;;;;;;;3.75;79.84;98737.00;7357243;19;20019;-64
2024/03/02 05:38:57;;;;;;;0.00;0.00;;;;;;;3.76;79.75;98743.03;7361067;19;20007;-65
2024/03/02 05:41:22;;;;;;;0.05;0.05;;;;;;;3.57;79.90;98707.34;7365341;19;20040;-64
2024/03/02 05:43:48;;;;;;;0.10;0.10;;;;;;;3.72;80.05;98734.50;7354966;19;20018;-64
2024/03/02 05:46:14;;;;;;;0.00;0.00;;;;;;;3.74;79.95;98735.28;7358980;19;20025;-64
2024/03/02 05:48:39;;;;;;;0.10;0.10;;;;;;;3.74;79.56;98743.03;7359347;19;20762;-64
2024/03/02 05:51:04;;;;;;;0.10;0.10;;;;;;;3.73;79.80;98738.75;7363099;19;20021;-64
2024/03/02 05:53:30;;;;;;;0.00;0.00;;;;;;;3.69;79.80;98734.56;7359839;19;20006;-65
2024/03/02 05:55:55;;;;;;;0.00;0.00;;;;;;;3.73;79.64;98736.19;7363775;19;20019;-64
2024/03/02 05:58:37;;;;;;;0.00;0.00;;;;;;;3.61;79.84;98714.13;7362198;19;20450;-65
2024/03/02 06:01:04;;;;;;;0.00;0.00;;;;;;;3.73;79.61;98733.59;7365591;19;20613;-64
2024/03/02 06:03:30;;;;;;;0.10;0.10;;;;;;;3.71;79.80;98735.38;7358978;19;20360;-64
2024/03/02 06:05:55;;;;;;;0.10;0.10;;;;;;;3.72;79.67;98731.91;7361824;19;20011;-64
2024/03/02 06:08:21;;;;;;;0.10;0.10;;;;;;;3.72;79.71;98733.66;7362468;19;20018;-64
2024/03/02 06:10:46;;;;;;;0.05;0.05;;;;;;;3.71;79.46;98735.38;7357600;19;20855;-64
2024/03/02 06:13:11;;;;;;;0.10;0.10;;;;;;;3.68;79.63;98730.31;7363522;19;20030;-65
2024/03/02 06:15:37;;;;;;;0.00;0.00;;;;;;;3.72;79.32;98736.25;7359650;19;20006;-64
2024/03/02 06:18:03;;;;;;;0.00;0.00;;;;;;;3.72;79.52;98742.25;7364687;19;20036;-64
2024/03/02 06:20:30;;;;;;;0.10;0.10;;;;;;;3.71;79.33;98745.72;7359831;19;20022;-64
2024/03/02 06:22:56;;;;;;;;;;;;;;;3.75;79.07;98749.91;7363226;19;20506;-64
2024/03/02 06:25:21;;;;;;;0.00;0.00;;;;;;;3.71;79.63;98748.31;7365063;19;19994;-63
2024/03/02 06:27:46;;;;;;;0.00;0.00;;;;;;;3.71;79.67;98756.03;7361621;19;20119;-65
2024/03/02 06:30:12;;;;;;;0.03;0.03;;;;;;;3.70;79.37;98753.47;7365400;19;20037;-64
2024/03/02 06:32:38;;;;;;;0.10;0.10;;;;;;;3.70;79.33;98758.63;7358732;19;20367;-64
2024/03/02 06:35:04;;;;;;;0.00;0.00;;;;;;;3.66;79.49;98755.31;7363507;19;20011;-65
2024/03/02 06:37:30;;;;;;;0.10;0.10;;;;;;;3.67;79.89;98767.31;7359206;19;19999;-64
2024/03/02 06:39:55;;;;;;;0.00;0.00;;;;;;;3.66;79.31;98763.06;7360256;19;20374;-65
2024/03/02 06:42:20;;;;;;;0.10;0.10;;;;;;;3.63;79.76;98757.97;7366148;19;20044;-64
2024/03/02 06:44:46;;;;;;;0.00;0.00;;;;;;;3.65;79.43;98763.94;7365848;19;20010;-64
2024/03/02 06:47:12;;;;;;;0.10;0.10;;;;;;;3.65;79.54;98771.69;7370606;19;19994;-64
2024/03/02 06:49:37;;;;;;;0.10;0.10;;;;;;;3.64;79.55;98769.97;7370253;19;20014;-65
2024/03/02 06:52:03;;;;;;;0.08;0.08;;;;;;;3.64;79.46;98769.97;7369454;19;20081;-64
2024/03/02 06:54:28;;;;;;;0.03;0.03;;;;;;;3.62;79.81;98772.59;7365934;19;20017;-64
2024/03/02 06:56:53;;;;;;;0.10;0.10;;;;;;;3.61;79.49;98770.06;7360722;19;20023;-64
2024/03/02 06:59:19;;;;;;;0.05;0.05;;;;;;;3.62;79.59;98782.09;7364197;19;20010;-65
2024/03/02 07:01:44;;;;;;;0.10;0.10;;;;;;;3.61;79.44;98780.41;7366413;19;23111;-64
2024/03/02 07:04:10;;;;;;;0.10;0.10;;;;;;;3.60;79.77;98791.63;7371490;19;20018;-64
2024/03/02 07:06:35;;;;;;;0.05;0.05;;;;;;;3.60;79.66;98781.28;7367328;19;20001;-65
2024/03/02 07:09:00;;;;;;;0.10;0.10;;;;;;;3.58;79.56;98791.63;7369167;19;20114;-65
2024/03/02 07:11:26;;;;;;;0.00;0.00;;;;;;;3.58;79.73;98790.78;7364281;19;20003;-64
2024/03/02 07:13:51;;;;;;;0.00;0.00;;;;;;;3.57;79.50;98789.09;7367747;19;20550;-64
2024/03/02 07:16:32;;;;;;;0.10;0.10;;;;;;;3.54;79.43;98789.16;7370686;19;20014;-65
2024/03/02 07:18:58;;;;;;;0.10;0.10;;;;;;;3.56;79.77;98797.72;7369588;19;20014;-65
2024/03/02 07:21:24;;;;;;;0.05;0.05;;;;;;;3.55;79.73;98790.88;7365722;19;20715;-64
2024/03/02 07:23:50;;;;;;;0.10;0.10;;;;;;;3.54;79.92;98789.16;7368668;19;20018;-64
2024/03/02 07:26:18;;;;;;;0.10;0.10;;;;;;;3.54;79.46;98789.16;7365969;19;20022;-64
2024/03/02 07:28:44;;;;;;;0.00;0.00;;;;;;;3.44;79.95;98777.38;7363402;19;20011;-64
2024/03/02 07:31:09;;;;;;;0.00;0.00;;;;;;;3.48;79.89;98786.75;7366808;19;20023;-64
2024/03/02 07:33:35;;;;;;;0.00;0.00;;;;;;;3.53;79.80;98800.38;7366347;19;20014;-64
2024/03/02 07:36:01;;;;;;;0.10;0.10;;;;;;;3.48;79.86;98785.00;7368935;19;20026;-65
2024/03/02 07:38:28;;;;;;;0.00;0.00;;;;;;;3.32;79.69;98755.31;7364757;19;20006;-64
2024/03/02 07:40:53;;;;;;;0.10;0.10;;;;;;;3.53;79.54;98792.63;7374967;19;20011;-64
2024/03/02 07:43:20;;;;;;;0.10;0.10;;;;;;;3.51;79.75;98792.69;7368996;19;20476;-63
2024/03/02 07:45:46;;;;;;;0.10;0.10;;;;;;;3.41;79.65;98777.47;7363725;19;20006;-64
2024/03/02 07:48:12;;;;;;;0.00;0.00;;;;;;;3.56;79.93;98805.47;7368361;19;20018;-64
2024/03/02 07:50:38;;;;;;;0.10;0.10;;;;;;;3.39;79.94;98769.75;7366278;19;20482;-64
2024/03/02 07:53:08;;;;;;;0.00;0.00;;;;;;;3.42;80.07;98774.00;7367356;19;20054;-64
2024/03/02 07:55:33;;;;;;;0.10;0.10;;;;;;;3.45;79.62;98768.75;7363383;19;20106;-63
2024/03/02 07:58:00;;;;;;;0.00;0.00;;;;;;;3.62;79.73;98800.16;7369076;19;20040;-65
2024/03/02 08:00:27;;;;;;;0.10;0.10;;;;;;;3.66;79.60;98798.34;7364709;19;20023;-65
2024/03/02 08:02:52;;;;;;;0.00;0.00;;;;;;;3.42;79.62;98761.09;7367300;19;20003;-65
2024/03/02 08:05:21;;;;;;;0.10;0.10;;;;;;;3.54;79.95;98774.53;7364129;19;20013;-64
2024/03/02 08:07:47;;;;;;;0.00;0.00;;;;;;;3.74;79.88;98805.00;7369409;19;20015;-63
2024/03/02 08:10:13;;;;;;;0.00;0.00;;;;;;;3.72;80.19;98799.03;7366319;19;20009;-64
2024/03/02 08:12:39;;;;;;;0.00;0.00;;;;;;;3.80;79.66;98807.44;7369921;19;20467;-63
2024/03/02 08:15:05;;;;;;;0.08;0.08;;;;;;;3.62;80.15;98772.59;7366844;19;20021;-64
2024/03/02 08:17:31;;;;;;;0.10;0.10;;;;;;;3.89;79.51;98807.19;7364602;19;20018;-64
2024/03/02 08:19:56;;;;;;;0.10;0.10;;;;;;;3.96;79.81;98807.03;7363323;19;20019;-64
2024/03/02 08:22:22;;;;;;;0.00;0.00;;;;;;;4.01;79.45;98810.34;7365029;19;20015;-64
2024/03/02 08:24:48;;;;;;;0.10;0.10;;;;;;;4.07;79.91;98810.19;7358463;19;21856;-64
2024/03/02 08:27:14;;;;;;;0.10;0.10;;;;;;;4.12;79.53;98814.34;7363648;19;20098;-64
2024/03/02 08:29:41;;;;;;;0.10;0.10;;;;;;;4.13;79.34;98804.84;7364249;19;19995;-64
2024/03/02 08:32:07;;;;;;;0.10;0.10;;;;;;;4.26;79.39;98811.38;7356265;19;20045;-65
2024/03/02 08:34:33;;;;;;;0.10;0.10;;;;;;;4.37;79.39;98811.94;7366350;19;20011;-64
2024/03/02 08:36:59;;;;;;;0.10;0.10;;;;;;;4.49;79.46;98812.47;7356729;19;20479;-64
2024/03/02 08:39:24;;;;;;;0.00;0.00;;;;;;;4.47;79.06;98785.84;7364499;19;20021;-64
2024/03/02 08:41:50;;;;;;;0.00;0.00;;;;;;;4.74;79.42;98807.44;7362610;19;20082;-64
2024/03/02 08:44:16;;;;;;;0.00;0.00;;;;;;;4.71;79.07;98782.50;7360305;19;20010;-64
2024/03/02 08:46:42;;;;;;;0.10;0.10;;;;;;;5.01;78.87;98810.94;7362864;19;20253;-65
2024/03/02 08:49:08;;;;;;;0.10;0.10;;;;;;;5.16;78.82;98816.47;7364720;19;20027;-64
2024/03/02 08:51:33;;;;;;;0.10;0.10;;;;;;;5.33;78.48;98803.03;7366511;19;20020;-65
2024/03/02 08:53:59;;;;;;;0.03;0.03;;;;;;;5.51;77.95;98806.75;7360072;19;20014;-65
2024/03/02 08:56:25;;;;;;;0.10;0.10;;;;;;;5.51;77.79;98777.44;7364543;19;20010;-63
2024/03/02 08:58:51;;;;;;;0.10;0.10;;;;;;;5.94;77.97;98805.38;7358440;19;20006;-64
2024/03/02 09:01:18;;;;;;;0.10;0.10;;;;;;;6.16;77.30;98806.31;7360530;19;20263;-63
2024/03/02 09:03:44;;;;;;;0.00;0.00;;;;;;;6.37;77.33;98809.03;7358093;19;20011;-65
2024/03/02 09:06:10;;;;;;;0.10;0.10;;;;;;;6.56;76.74;98812.66;7362026;19;20022;-64
2024/03/02 09:08:36;;;;;;;0.10;0.10;;;;;;;6.71;76.50;98809.50;7360244;19;20473;-65
2024/03/02 09:11:05;;;;;;;0.10;0.10;;;;;;;6.84;76.32;98804.69;7366605;19;20014;-64
2024/03/02 09:13:31;;;;;;;0.08;0.08;;;;;;;6.92;76.18;98802.66;7360647;19;20025;-64
2024/03/02 09:15:56;;;;;;;0.10;0.10;;;;;;;7.01;76.12;98810.09;7362095;19;20750;-64
2024/03/02 09:18:22;;;;;;;0.10;0.10;;;;;;;7.12;75.78;98808.84;7360598;19;20033;-64
2024/03/02 09:20:47;;;;;;;0.10;0.10;;;;;;;7.08;75.66;98774.34;7364983;19;20527;-63
2024/03/02 09:23:12;;;;;;;0.10;0.10;;;;;;;7.40;75.33;98813.75;7363018;19;19999;-64
2024/03/02 09:25:38;;;;;;;0.00;0.00;;;;;;;7.53;75.04;98815.81;7366713;19;20865;-63
2024/03/02 09:28:03;;;;;;;0.10;0.10;;;;;;;7.68;75.17;98826.50;7363131;19;20507;-63
2024/03/02 09:30:29;;;;;;;0.10;0.10;;;;;;;7.53;74.61;98773.41;7367870;19;20014;-63
2024/03/02 09:32:54;;;;;;;0.10;0.10;;;;;;;7.93;74.48;98824.56;7357753;19;20023;-64
2024/03/02 09:35:20;;;;;;;0.10;0.10;;;;;;;8.06;74.07;98824.91;7362069;19;20014;-64
2024/03/02 09:37:45;;;;;;;0.10;0.10;;;;;;;8.21;74.26;98823.38;7348179;19;21303;-65
2024/03/02 09:40:11;;;;;;;0.10;0.10;;;;;;;8.36;74.06;98816.69;7354275;19;20018;-64
2024/03/02 09:42:37;;;;;;;0.10;0.10;;;;;;;8.42;73.75;98795.66;7361288;19;20612;-65
2024/03/02 09:45:03;;;;;;;0.05;0.05;;;;;;;8.68;73.28;98817.91;7364728;19;20007;-64
2024/03/02 09:47:29;;;;;;;0.10;0.10;;;;;;;8.82;73.24;98811.16;7361195;19;20053;-64
2024/03/02 09:49:55;;;;;;;0.10;0.10;;;;;;;9.01;72.71;98810.28;7363581;19;20013;-64
2024/03/02 09:52:22;;;;;;;0.10;0.10;;;;;;;9.22;72.91;98803.22;7361632;19;20014;-65
2024/03/02 09:54:48;;;;;;;0.10;0.10;;;;;;;9.41;72.56;98804.03;7363811;19;20003;-64
2024/03/02 09:57:14;;;;;;;0.10;0.10;;;;;;;9.59;72.41;98797.94;7363926;19;20728;-64
2024/03/02 09:59:39;;;;;;;0.10;0.10;;;;;;;9.82;72.05;98803.78;7363958;19;20007;-64
2024/03/02 10:02:06;;;;;;;0.10;0.10;;;;;;;9.95;71.90;98799.63;7360230;19;20047;-65
2024/03/02 10:04:33;;;;;;;0.10;0.10;;;;;;;10.24;71.58;98812.97;7362014;19;20014;-64
2024/03/02 10:07:18;;;;;;;0.10;0.10;;;;;;;10.53;72.41;98806.25;7360591;19;20013;-65
2024/03/02 10:09:46;;;;;;;0.10;0.10;;;;;;;10.64;70.65;98807.38;7365989;19;20074;-64
2024/03/02 10:12:12;;;;;;;;;;;;;;;10.91;72.75;98806.81;7358500;19;20034;-65
2024/03/02 10:14:37;;;;;;;0.10;0.10;;;;;;;10.82;70.56;98787.25;7365125;19;20611;-65
2024/03/02 10:17:04;;;;;;;0.10;0.10;;;;;;;11.06;70.55;98810.38;7368835;19;20014;-64
2024/03/02 10:19:34;;;;;;;0.10;0.10;;;;;;;11.09;70.05;98794.50;7371899;19;20017;-63
2024/03/02 10:22:02;;;;;;;0.10;0.10;;;;;;;11.13;69.64;98804.69;7361828;19;20017;-65
2024/03/02 10:24:37;;;;;;;0.10;0.10;;;;;;;11.15;70.10;98805.47;7369834;19;20014;-64
2024/03/02 10:27:06;;;;;;;0.10;0.10;;;;;;;11.04;70.23;98805.19;7364030;19;20018;-63
2024/03/02 10:29:32;;;;;;;0.20;0.20;;;;;;;11.02;70.19;98806.22;7371239;19;20010;-64
2024/03/02 10:31:59;;;;;;;0.10;0.10;;;;;;;11.00;70.55;98810.66;7364975;19;20015;-63
2024/03/02 10:34:24;;;;;;;0.10;0.10;;;;;;;10.90;70.79;98779.03;7359514;19;20014;-63
2024/03/02 10:36:50;;;;;;;0.10;0.10;;;;;;;11.12;70.76;98799.56;7365143;19;21151;-64
2024/03/02 10:39:17;;;;;;;0.10;0.10;;;;;;;11.29;70.75;98803.84;7363777;19;20483;-65
2024/03/02 10:41:45;;;;;;;0.10;0.10;;;;;;;11.37;70.54;98773.75;7367404;19;20767;-64
2024/03/02 10:44:11;;;;;;;0.10;0.10;;;;;;;11.74;70.39;98792.56;7364817;19;20003;-64
2024/03/02 10:46:37;;;;;;;0.10;0.10;;;;;;;11.97;69.69;98801.72;7365178;19;20018;-65
2024/03/02 10:49:04;;;;;;;0.10;0.10;;;;;;;12.20;69.05;98801.19;7362514;19;20006;-65
2024/03/02 10:51:32;;;;;;;0.10;0.10;;;;;;;12.34;69.07;98800.34;7367775;19;20011;-64
2024/03/02 10:54:01;;;;;;;;;;;;;;;12.59;71.69;98802.34;7361072;19;20636;-64
2024/03/02 10:56:41;;;;;;;0.10;0.10;;;;;;;12.70;70.32;98804.28;7363379;19;20742;-64
2024/03/02 10:59:33;;;;;;;0.10;0.10;;;;;;;12.83;69.46;98796.53;7366856;19;20010;-65
2024/03/02 11:02:00;;;;;;;0.10;0.10;;;;;;;12.89;67.97;98807.47;7360082;19;20046;-64
2024/03/02 11:04:28;;;;;;;0.10;0.10;;;;;;;13.04;67.86;98805.66;7363964;19;20814;-65
2024/03/02 11:07:02;;;;;;;0.13;0.13;;;;;;;13.21;68.50;98805.44;7363033;19;20007;-64
2024/03/02 11:09:31;;;;;;;0.10;0.10;;;;;;;13.29;67.18;98797.09;7363422;19;20006;-64
2024/03/02 11:12:25;;;;;;;0.10;0.10;;;;;;;13.51;67.67;98801.78;7361336;19;20010;-64
2024/03/02 11:14:54;;;;;;;0.10;0.10;;;;;;;13.65;67.06;98807.00;7361459;19;20038;-65
2024/03/02 11:17:19;;;;;;;0.10;0.10;;;;;;;13.85;66.87;98807.47;7361436;19;20701;-65
2024/03/02 11:19:46;;;;;;;0.10;0.10;;;;;;;14.06;66.34;98806.03;7368287;19;19999;-65
2024/03/02 11:22:13;;;;;;;0.10;0.10;;;;;;;14.23;66.30;98792.59;7364914;19;20042;-64
2024/03/02 11:24:51;;;;;;;0.10;0.10;;;;;;;14.48;66.02;98798.81;7365004;19;19998;-64
2024/03/02 11:27:45;;;;;;;0.20;0.20;;;;;;;14.84;67.65;98805.91;7366963;19;21187;-66
2024/03/02 11:30:32;;;;;;;0.10;0.10;;;;;;;15.08;67.78;98803.34;7366340;19;19999;-64
2024/03/02 11:33:10;;;;;;;0.10;0.10;;;;;;;15.18;64.88;98799.09;7360009;19;20020;-65
2024/03/02 11:35:39;;;;;;;0.10;0.10;;;;;;;15.32;63.79;98796.31;7360045;19;20425;-64
2024/03/02 11:38:07;;;;;;;0.10;0.10;;;;;;;15.46;63.98;98799.72;7362873;19;20537;-64
2024/03/02 11:40:32;;;;;;;0.17;0.17;;;;;;;15.36;63.99;98769.78;7363268;19;20018;-64
2024/03/02 11:43:00;;;;;;;0.10;0.10;;;;;;;15.61;64.03;98789.88;7359666;19;20014;-64
2024/03/02 11:45:27;;;;;;;0.10;0.10;;;;;;;15.70;64.42;98795.31;7360361;19;20018;-64